Lake Dawn — 3EXJ9 — position and weather

sailwx.info

Track history (hours):
 
Tides and Currents Weather Stations Pressure Air Temp Water Temp Dewpoint Dewpoint Depression Visibility Wind Speed Wind Dir Waves Ship Positions

Lake Dawn

Last reported at 2018-Jun-02 02:13 UTC. Time now 2018-Jun-21 00:58 UTC.
Position S 38°25' E 148°41'.
Warning: this ship's position is 18 days out of date.

Length 229 m; draft 14.2 m.

Type: Cargo ship. MMSI: 355196000.

Date/timePositionNaut miles runAvg speedWind from/ knotsBaromVisibWave heightAir tempDewpointWater temp
2018-Jun-02 02:13S 38°25' E 148°41'411.1
2018-Jun-02 01:54S 38°23' E 148°45'511.1
2018-Jun-02 01:29S 38°20' E 148°50'511.6
2018-Jun-02 01:00S 38°17' E 148°56'712.0
2018-Jun-02 00:28S 38°13' E 149°03'268 7.6
2018-May-31 13:08S 34°19' E 151°43'3 5.6
2018-May-31 12:39S 34°16' E 151°45'1 5.2
2018-May-31 12:27S 34°16' E 151°45'3 5.4
2018-May-31 11:54S 34°13' E 151°46'2 5.7
2018-May-31 11:29S 34°11' E 151°48'3 5.8
2018-May-31 11:01S 34°08' E 151°49'5 6.2
2018-May-31 10:13S 34°04' E 151°52'2 6.2
2018-May-31 09:56S 34°03' E 151°54'3 6.4
2018-May-31 09:30S 34°00' E 151°55'4 6.8
2018-May-31 08:54S 33°57' E 151°58'48 8.6
2018-May-31 03:24S 33°13' E 152°21'411.3
2018-May-31 03:01S 33°09' E 152°23'611.6
2018-May-31 02:30S 33°04' E 152°25'712.3
2018-May-31 01:58S 32°58' E 152°28'612.3
2018-May-31 01:31S 32°52' E 152°30'612.5
2018-May-31 01:01S 32°46' E 152°33'612.6
2018-May-31 00:31S 32°41' E 152°36'712.3
2018-May-30 23:57S 32°34' E 152°39'812.0
2018-May-30 23:19S 32°27' E 152°42'28212.7
2018-May-30 01:03S 27°50' E 153°47'114.8
2018-May-30 01:00S 27°50' E 153°47'714.8
2018-May-30 00:30S 27°42' E 153°46'1014.7
2018-May-29 23:48S 27°32' E 153°46'1614.5
2018-May-29 22:43S 27°16' E 153°44'1114.5
2018-May-29 21:55S 27°05' E 153°42'  
Track history (hours):
 
Tides and Currents Weather Stations Pressure Air Temp Water Temp Dewpoint Dewpoint Depression Visibility Wind Speed Wind Dir Waves Ship Positions

Lake Dawn

Last reported at 2018-Jun-02 02:13 UTC. Time now 2018-Jun-21 00:58 UTC.
Position S 38°25' E 148°41'.
Warning: this ship's position is 18 days out of date.

Length 229 m; draft 14.2 m.

Type: Cargo ship. MMSI: 355196000.

Date/timePositionNaut miles runAvg speedWind from/ knotsBaromVisibWave heightAir tempDewpointWater temp
2018-Jun-02 02:13S 38°25' E 148°41'411.1
2018-Jun-02 01:54S 38°23' E 148°45'511.1
2018-Jun-02 01:29S 38°20' E 148°50'511.6
2018-Jun-02 01:00S 38°17' E 148°56'712.0
2018-Jun-02 00:28S 38°13' E 149°03'268 7.6
2018-May-31 13:08S 34°19' E 151°43'3 5.6
2018-May-31 12:39S 34°16' E 151°45'1 5.2
2018-May-31 12:27S 34°16' E 151°45'3 5.4
2018-May-31 11:54S 34°13' E 151°46'2 5.7
2018-May-31 11:29S 34°11' E 151°48'3 5.8
2018-May-31 11:01S 34°08' E 151°49'5 6.2
2018-May-31 10:13S 34°04' E 151°52'2 6.2
2018-May-31 09:56S 34°03' E 151°54'3 6.4
2018-May-31 09:30S 34°00' E 151°55'4 6.8
2018-May-31 08:54S 33°57' E 151°58'48 8.6
2018-May-31 03:24S 33°13' E 152°21'411.3
2018-May-31 03:01S 33°09' E 152°23'611.6
2018-May-31 02:30S 33°04' E 152°25'712.3
2018-May-31 01:58S 32°58' E 152°28'612.3
2018-May-31 01:31S 32°52' E 152°30'612.5
2018-May-31 01:01S 32°46' E 152°33'612.6
2018-May-31 00:31S 32°41' E 152°36'712.3
2018-May-30 23:57S 32°34' E 152°39'812.0
2018-May-30 23:19S 32°27' E 152°42'28212.7
2018-May-30 01:03S 27°50' E 153°47'114.8
2018-May-30 01:00S 27°50' E 153°47'714.8
2018-May-30 00:30S 27°42' E 153°46'1014.7
2018-May-29 23:48S 27°32' E 153°46'1614.5
2018-May-29 22:43S 27°16' E 153°44'1114.5
2018-May-29 21:55S 27°05' E 153°42'  

Dump ship's entire track history